sensor_id;sensor_type;location;lat;lon;timestamp;pressure;altitude;pressure_sealevel;temperature;humidity
28683;BME280;15862;43.062;25.626;2022-10-15T00:01:53;100409.44;;;11.74;100.00
28683;BME280;15862;43.062;25.626;2022-10-15T00:04:18;100420.25;;;11.68;100.00
28683;BME280;15862;43.062;25.626;2022-10-15T00:06:43;100418.41;;;11.58;100.00
28683;BME280;15862;43.062;25.626;2022-10-15T00:09:08;100419.09;;;11.47;100.00
28683;BME280;15862;43.062;25.626;2022-10-15T00:11:34;100420.22;;;11.43;100.00
28683;BME280;15862;43.062;25.626;2022-10-15T00:13:59;100430.38;;;11.46;100.00
28683;BME280;15862;43.062;25.626;2022-10-15T00:16:26;100427.56;;;11.49;100.00
28683;BME280;15862;43.062;25.626;2022-10-15T00:18:51;100423.97;;;11.52;100.00
28683;BME280;15862;43.062;25.626;2022-10-15T00:21:19;100424.97;;;11.49;100.00
28683;BME280;15862;43.062;25.626;2022-10-15T00:23:45;100418.81;;;11.40;100.00
28683;BME280;15862;43.062;25.626;2022-10-15T00:26:12;100424.78;;;11.28;100.00
28683;BME280;15862;43.062;25.626;2022-10-15T00:28:38;100422.44;;;11.25;100.00
28683;BME280;15862;43.062;25.626;2022-10-15T00:31:07;100420.47;;;11.16;100.00
28683;BME280;15862;43.062;25.626;2022-10-15T00:33:33;100417.56;;;11.08;100.00
28683;BME280;15862;43.062;25.626;2022-10-15T00:35:59;100417.75;;;11.05;100.00
28683;BME280;15862;43.062;25.626;2022-10-15T00:38:26;100420.34;;;11.05;100.00
28683;BME280;15862;43.062;25.626;2022-10-15T00:40:51;100415.06;;;10.94;100.00
28683;BME280;15862;43.062;25.626;2022-10-15T00:43:16;100418.06;;;10.88;100.00
28683;BME280;15862;43.062;25.626;2022-10-15T00:45:42;100425.50;;;10.80;100.00
28683;BME280;15862;43.062;25.626;2022-10-15T00:48:07;100433.97;;;10.69;100.00
28683;BME280;15862;43.062;25.626;2022-10-15T00:50:32;100427.31;;;10.65;100.00
28683;BME280;15862;43.062;25.626;2022-10-15T00:53:05;100432.59;;;10.64;100.00
28683;BME280;15862;43.062;25.626;2022-10-15T00:55:33;100424.41;;;10.58;100.00
28683;BME280;15862;43.062;25.626;2022-10-15T00:58:04;100427.94;;;10.57;100.00
28683;BME280;15862;43.062;25.626;2022-10-15T01:00:30;100431.34;;;10.57;100.00
28683;BME280;15862;43.062;25.626;2022-10-15T01:02:56;100427.50;;;10.50;100.00
28683;BME280;15862;43.062;25.626;2022-10-15T01:05:21;100424.41;;;10.45;100.00
28683;BME280;15862;43.062;25.626;2022-10-15T01:07:47;100424.25;;;10.34;100.00
28683;BME280;15862;43.062;25.626;2022-10-15T01:10:12;100421.16;;;10.29;100.00
28683;BME280;15862;43.062;25.626;2022-10-15T01:12:44;100425.78;;;10.24;100.00
28683;BME280;15862;43.062;25.626;2022-10-15T01:15:18;100420.69;;;10.23;100.00
28683;BME280;15862;43.062;25.626;2022-10-15T01:17:48;100432.25;;;10.17;100.00
28683;BME280;15862;43.062;25.626;2022-10-15T01:20:35;100433.53;;;10.10;100.00
28683;BME280;15862;43.062;25.626;2022-10-15T01:23:27;100433.88;;;10.06;100.00
28683;BME280;15862;43.062;25.626;2022-10-15T01:31:18;100438.72;;;9.96;100.00
28683;BME280;15862;43.062;25.626;2022-10-15T01:33:49;100438.72;;;9.96;100.00
28683;BME280;15862;43.062;25.626;2022-10-15T01:36:42;100443.88;;;9.96;100.00
28683;BME280;15862;43.062;25.626;2022-10-15T01:39:09;100444.25;;;9.90;100.00
28683;BME280;15862;43.062;25.626;2022-10-15T01:44:16;100454.22;;;9.83;100.00
28683;BME280;15862;43.062;25.626;2022-10-15T01:46:50;100449.34;;;9.78;100.00
28683;BME280;15862;43.062;25.626;2022-10-15T01:49:20;100452.78;;;9.79;100.00
28683;BME280;15862;43.062;25.626;2022-10-15T01:51:48;100456.00;;;9.82;100.00
28683;BME280;15862;43.062;25.626;2022-10-15T01:54:15;100451.84;;;9.80;100.00
28683;BME280;15862;43.062;25.626;2022-10-15T01:56:42;100447.06;;;9.74;100.00
28683;BME280;15862;43.062;25.626;2022-10-15T01:59:13;100455.00;;;9.71;100.00
28683;BME280;15862;43.062;25.626;2022-10-15T02:01:41;100450.47;;;9.60;100.00
28683;BME280;15862;43.062;25.626;2022-10-15T02:04:16;100456.84;;;9.55;100.00
28683;BME280;15862;43.062;25.626;2022-10-15T02:06:42;100458.50;;;9.56;100.00
28683;BME280;15862;43.062;25.626;2022-10-15T02:12:11;100449.84;;;9.43;100.00
28683;BME280;15862;43.062;25.626;2022-10-15T02:14:52;100457.38;;;9.46;100.00
28683;BME280;15862;43.062;25.626;2022-10-15T02:17:23;100457.97;;;9.37;100.00
28683;BME280;15862;43.062;25.626;2022-10-15T02:19:53;100462.38;;;9.35;100.00
28683;BME280;15862;43.062;25.626;2022-10-15T02:22:31;100462.63;;;9.30;100.00
28683;BME280;15862;43.062;25.626;2022-10-15T02:25:00;100462.16;;;9.24;100.00
28683;BME280;15862;43.062;25.626;2022-10-15T02:27:28;100459.13;;;9.17;100.00
28683;BME280;15862;43.062;25.626;2022-10-15T02:29:55;100457.38;;;9.18;100.00
28683;BME280;15862;43.062;25.626;2022-10-15T02:32:21;100466.94;;;9.16;100.00
28683;BME280;15862;43.062;25.626;2022-10-15T02:34:47;100471.53;;;9.11;100.00
28683;BME280;15862;43.062;25.626;2022-10-15T02:37:13;100472.56;;;9.09;100.00
28683;BME280;15862;43.062;25.626;2022-10-15T02:39:39;100472.06;;;9.02;100.00
28683;BME280;15862;43.062;25.626;2022-10-15T02:42:04;100471.25;;;9.02;100.00
28683;BME280;15862;43.062;25.626;2022-10-15T02:44:30;100470.41;;;9.01;100.00
28683;BME280;15862;43.062;25.626;2022-10-15T02:46:56;100472.78;;;8.90;100.00
28683;BME280;15862;43.062;25.626;2022-10-15T02:49:22;100470.47;;;8.86;100.00
28683;BME280;15862;43.062;25.626;2022-10-15T02:51:48;100473.88;;;8.86;100.00
28683;BME280;15862;43.062;25.626;2022-10-15T02:54:13;100469.66;;;8.85;100.00
28683;BME280;15862;43.062;25.626;2022-10-15T02:56:38;100474.81;;;8.85;100.00
28683;BME280;15862;43.062;25.626;2022-10-15T02:59:04;100476.63;;;8.83;100.00
28683;BME280;15862;43.062;25.626;2022-10-15T03:01:30;100469.06;;;8.80;100.00
28683;BME280;15862;43.062;25.626;2022-10-15T03:03:55;100471.84;;;8.77;100.00
28683;BME280;15862;43.062;25.626;2022-10-15T03:06:20;100466.19;;;8.71;100.00
28683;BME280;15862;43.062;25.626;2022-10-15T03:08:46;100467.19;;;8.68;100.00
28683;BME280;15862;43.062;25.626;2022-10-15T03:11:11;100466.63;;;8.63;100.00
28683;BME280;15862;43.062;25.626;2022-10-15T03:13:37;100467.34;;;8.65;100.00
28683;BME280;15862;43.062;25.626;2022-10-15T03:16:03;100479.50;;;8.63;100.00
28683;BME280;15862;43.062;25.626;2022-10-15T03:18:29;100476.03;;;8.64;100.00
28683;BME280;15862;43.062;25.626;2022-10-15T03:20:54;100474.28;;;8.65;100.00
28683;BME280;15862;43.062;25.626;2022-10-15T03:23:20;100479.81;;;8.73;100.00
28683;BME280;15862;43.062;25.626;2022-10-15T03:25:45;100480.25;;;8.65;100.00
28683;BME280;15862;43.062;25.626;2022-10-15T03:28:10;100477.28;;;8.57;100.00
28683;BME280;15862;43.062;25.626;2022-10-15T03:30:36;100473.13;;;8.55;100.00
28683;BME280;15862;43.062;25.626;2022-10-15T03:33:01;100475.03;;;8.51;100.00
28683;BME280;15862;43.062;25.626;2022-10-15T03:35:26;100470.78;;;8.50;100.00
28683;BME280;15862;43.062;25.626;2022-10-15T03:37:52;100480.94;;;8.53;100.00
28683;BME280;15862;43.062;25.626;2022-10-15T03:40:17;100485.34;;;8.51;100.00
28683;BME280;15862;43.062;25.626;2022-10-15T03:42:42;100487.00;;;8.52;100.00
28683;BME280;15862;43.062;25.626;2022-10-15T03:45:08;100499.97;;;8.51;100.00
28683;BME280;15862;43.062;25.626;2022-10-15T03:47:33;100491.31;;;8.52;100.00
28683;BME280;15862;43.062;25.626;2022-10-15T03:49:58;100496.06;;;8.44;100.00
28683;BME280;15862;43.062;25.626;2022-10-15T03:52:23;100497.97;;;8.40;100.00
28683;BME280;15862;43.062;25.626;2022-10-15T03:54:49;100504.19;;;8.36;100.00
28683;BME280;15862;43.062;25.626;2022-10-15T03:57:14;100508.38;;;8.39;100.00
28683;BME280;15862;43.062;25.626;2022-10-15T03:59:39;100509.94;;;8.41;100.00
28683;BME280;15862;43.062;25.626;2022-10-15T04:02:05;100506.78;;;8.36;100.00
28683;BME280;15862;43.062;25.626;2022-10-15T04:04:30;100515.09;;;8.41;100.00
28683;BME280;15862;43.062;25.626;2022-10-15T04:06:56;100511.59;;;8.42;100.00
28683;BME280;15862;43.062;25.626;2022-10-15T04:09:21;100510.28;;;8.36;100.00
28683;BME280;15862;43.062;25.626;2022-10-15T04:11:46;100511.91;;;8.36;100.00
28683;BME280;15862;43.062;25.626;2022-10-15T04:14:12;100509.78;;;8.29;100.00
28683;BME280;15862;43.062;25.626;2022-10-15T04:16:37;100514.94;;;8.29;100.00
28683;BME280;15862;43.062;25.626;2022-10-15T04:19:02;100519.66;;;8.21;100.00
28683;BME280;15862;43.062;25.626;2022-10-15T04:21:27;100517.22;;;8.18;100.00
28683;BME280;15862;43.062;25.626;2022-10-15T04:23:53;100508.50;;;8.05;100.00
28683;BME280;15862;43.062;25.626;2022-10-15T04:26:18;100510.91;;;8.08;100.00
28683;BME280;15862;43.062;25.626;2022-10-15T04:28:43;100519.44;;;8.09;100.00
28683;BME280;15862;43.062;25.626;2022-10-15T04:31:09;100517.72;;;8.09;100.00
28683;BME280;15862;43.062;25.626;2022-10-15T04:33:34;100516.31;;;8.04;100.00
28683;BME280;15862;43.062;25.626;2022-10-15T04:36:06;100515.38;;;8.05;100.00
28683;BME280;15862;43.062;25.626;2022-10-15T04:38:33;100517.06;;;8.06;100.00
28683;BME280;15862;43.062;25.626;2022-10-15T04:41:08;100515.06;;;7.95;100.00
28683;BME280;15862;43.062;25.626;2022-10-15T04:43:34;100526.69;;;8.02;100.00
28683;BME280;15862;43.062;25.626;2022-10-15T04:46:01;100526.59;;;8.04;100.00
28683;BME280;15862;43.062;25.626;2022-10-15T04:48:27;100531.88;;;8.01;100.00
28683;BME280;15862;43.062;25.626;2022-10-15T04:50:52;100540.59;;;7.98;100.00
28683;BME280;15862;43.062;25.626;2022-10-15T04:53:18;100550.06;;;7.98;100.00
28683;BME280;15862;43.062;25.626;2022-10-15T04:55:43;100546.16;;;7.91;100.00
28683;BME280;15862;43.062;25.626;2022-10-15T04:58:08;100553.56;;;7.97;100.00
28683;BME280;15862;43.062;25.626;2022-10-15T05:00:34;100550.88;;;7.98;100.00
28683;BME280;15862;43.062;25.626;2022-10-15T05:02:59;100547.25;;;8.02;100.00
28683;BME280;15862;43.062;25.626;2022-10-15T05:05:24;100556.69;;;8.02;100.00
28683;BME280;15862;43.062;25.626;2022-10-15T05:07:50;100552.13;;;8.07;100.00
28683;BME280;15862;43.062;25.626;2022-10-15T05:10:15;100551.16;;;8.09;100.00
28683;BME280;15862;43.062;25.626;2022-10-15T05:12:40;100549.41;;;8.10;100.00
28683;BME280;15862;43.062;25.626;2022-10-15T05:15:06;100554.94;;;8.19;100.00
28683;BME280;15862;43.062;25.626;2022-10-15T05:17:31;100552.66;;;8.13;100.00
28683;BME280;15862;43.062;25.626;2022-10-15T05:19:56;100558.41;;;8.18;100.00
28683;BME280;15862;43.062;25.626;2022-10-15T05:22:21;100563.06;;;8.27;100.00
28683;BME280;15862;43.062;25.626;2022-10-15T05:24:47;100567.81;;;8.35;100.00
28683;BME280;15862;43.062;25.626;2022-10-15T05:27:12;100566.06;;;8.35;100.00
28683;BME280;15862;43.062;25.626;2022-10-15T05:29:37;100572.72;;;8.39;100.00
28683;BME280;15862;43.062;25.626;2022-10-15T05:32:04;100572.44;;;8.43;100.00
28683;BME280;15862;43.062;25.626;2022-10-15T05:34:29;100579.94;;;8.48;100.00
28683;BME280;15862;43.062;25.626;2022-10-15T05:36:54;100577.72;;;8.57;100.00
28683;BME280;15862;43.062;25.626;2022-10-15T05:39:20;100571.47;;;8.61;100.00
28683;BME280;15862;43.062;25.626;2022-10-15T05:41:45;100577.03;;;8.69;100.00
28683;BME280;15862;43.062;25.626;2022-10-15T05:44:10;100585.59;;;8.54;100.00
28683;BME280;15862;43.062;25.626;2022-10-15T05:46:36;100597.06;;;8.64;100.00
28683;BME280;15862;43.062;25.626;2022-10-15T05:49:01;100589.66;;;8.74;100.00
28683;BME280;15862;43.062;25.626;2022-10-15T05:51:26;100595.63;;;8.90;100.00
28683;BME280;15862;43.062;25.626;2022-10-15T05:53:55;100591.44;;;9.03;100.00
28683;BME280;15862;43.062;25.626;2022-10-15T05:56:21;100593.38;;;8.99;100.00
28683;BME280;15862;43.062;25.626;2022-10-15T05:58:46;100599.31;;;9.15;100.00
28683;BME280;15862;43.062;25.626;2022-10-15T06:01:12;100594.22;;;9.29;100.00
28683;BME280;15862;43.062;25.626;2022-10-15T06:03:38;100595.31;;;9.39;100.00
28683;BME280;15862;43.062;25.626;2022-10-15T06:06:04;100596.63;;;9.46;100.00
28683;BME280;15862;43.062;25.626;2022-10-15T06:08:29;100595.03;;;9.59;100.00
28683;BME280;15862;43.062;25.626;2022-10-15T06:11:00;100595.97;;;9.86;100.00
28683;BME280;15862;43.062;25.626;2022-10-15T06:13:25;100585.50;;;10.16;100.00
28683;BME280;15862;43.062;25.626;2022-10-15T06:15:51;100585.81;;;10.52;100.00
28683;BME280;15862;43.062;25.626;2022-10-15T06:18:16;100573.44;;;11.73;100.00
28683;BME280;15862;43.062;25.626;2022-10-15T06:20:42;100546.50;;;13.86;100.00
28683;BME280;15862;43.062;25.626;2022-10-15T06:23:07;100551.34;;;15.80;100.00
28683;BME280;15862;43.062;25.626;2022-10-15T06:25:33;100540.50;;;16.34;85.83
28683;BME280;15862;43.062;25.626;2022-10-15T06:28:02;100555.16;;;17.22;80.51
28683;BME280;15862;43.062;25.626;2022-10-15T06:30:28;100561.50;;;17.29;76.47
28683;BME280;15862;43.062;25.626;2022-10-15T06:32:53;100562.19;;;16.44;80.29
28683;BME280;15862;43.062;25.626;2022-10-15T06:35:20;100560.06;;;16.68;81.37
28683;BME280;15862;43.062;25.626;2022-10-15T06:37:45;100562.66;;;16.78;81.22
28683;BME280;15862;43.062;25.626;2022-10-15T06:40:11;100564.69;;;16.55;80.06
28683;BME280;15862;43.062;25.626;2022-10-15T06:42:37;100574.66;;;16.11;83.12
28683;BME280;15862;43.062;25.626;2022-10-15T06:45:03;100572.31;;;15.06;91.32
28683;BME280;15862;43.062;25.626;2022-10-15T06:47:28;100575.13;;;14.83;94.24
28683;BME280;15862;43.062;25.626;2022-10-15T06:49:53;100581.22;;;14.40;97.86
28683;BME280;15862;43.062;25.626;2022-10-15T06:52:18;100582.28;;;13.93;100.00
28683;BME280;15862;43.062;25.626;2022-10-15T06:54:44;100567.06;;;13.33;100.00
28683;BME280;15862;43.062;25.626;2022-10-15T06:57:10;100582.75;;;13.31;100.00
28683;BME280;15862;43.062;25.626;2022-10-15T06:59:35;100585.72;;;13.38;100.00
28683;BME280;15862;43.062;25.626;2022-10-15T07:02:00;100584.84;;;13.26;100.00
28683;BME280;15862;43.062;25.626;2022-10-15T07:04:25;100578.56;;;12.95;100.00
28683;BME280;15862;43.062;25.626;2022-10-15T07:06:51;100582.56;;;12.88;100.00
28683;BME280;15862;43.062;25.626;2022-10-15T07:09:16;100586.22;;;12.73;100.00
28683;BME280;15862;43.062;25.626;2022-10-15T07:11:41;100585.56;;;12.82;100.00
28683;BME280;15862;43.062;25.626;2022-10-15T07:14:07;100587.34;;;12.81;100.00
28683;BME280;15862;43.062;25.626;2022-10-15T07:16:32;100571.53;;;12.97;100.00
28683;BME280;15862;43.062;25.626;2022-10-15T07:18:57;100574.53;;;13.14;100.00
28683;BME280;15862;43.062;25.626;2022-10-15T07:21:22;100580.31;;;13.52;100.00
28683;BME280;15862;43.062;25.626;2022-10-15T07:23:48;100578.13;;;13.69;100.00
28683;BME280;15862;43.062;25.626;2022-10-15T07:26:13;100582.88;;;13.86;100.00
28683;BME280;15862;43.062;25.626;2022-10-15T07:28:39;100588.06;;;13.86;100.00
28683;BME280;15862;43.062;25.626;2022-10-15T07:31:05;100581.00;;;13.88;100.00
28683;BME280;15862;43.062;25.626;2022-10-15T07:33:31;100581.81;;;13.88;100.00
28683;BME280;15862;43.062;25.626;2022-10-15T07:36:00;100588.31;;;13.94;100.00
28683;BME280;15862;43.062;25.626;2022-10-15T07:38:26;100588.31;;;13.94;100.00
28683;BME280;15862;43.062;25.626;2022-10-15T07:40:51;100585.63;;;14.17;100.00
28683;BME280;15862;43.062;25.626;2022-10-15T07:43:16;100592.13;;;14.23;100.00
28683;BME280;15862;43.062;25.626;2022-10-15T07:45:45;100590.38;;;14.12;100.00
28683;BME280;15862;43.062;25.626;2022-10-15T07:48:11;100588.34;;;14.16;100.00
28683;BME280;15862;43.062;25.626;2022-10-15T07:50:36;100593.59;;;13.81;100.00
28683;BME280;15862;43.062;25.626;2022-10-15T07:53:02;100598.03;;;13.47;100.00
28683;BME280;15862;43.062;25.626;2022-10-15T07:55:27;100597.13;;;13.01;100.00
28683;BME280;15862;43.062;25.626;2022-10-15T07:57:55;100600.25;;;12.94;100.00
28683;BME280;15862;43.062;25.626;2022-10-15T08:00:20;100606.09;;;12.85;100.00
28683;BME280;15862;43.062;25.626;2022-10-15T08:02:45;100606.91;;;12.85;100.00
28683;BME280;15862;43.062;25.626;2022-10-15T08:05:11;100616.56;;;12.83;100.00
28683;BME280;15862;43.062;25.626;2022-10-15T08:07:36;100609.34;;;12.76;100.00
28683;BME280;15862;43.062;25.626;2022-10-15T08:10:02;100609.88;;;12.68;100.00
28683;BME280;15862;43.062;25.626;2022-10-15T08:12:29;100608.53;;;12.75;100.00
28683;BME280;15862;43.062;25.626;2022-10-15T08:14:54;100608.69;;;12.85;100.00
28683;BME280;15862;43.062;25.626;2022-10-15T08:17:20;100609.38;;;12.87;100.00
28683;BME280;15862;43.062;25.626;2022-10-15T08:19:45;100610.44;;;12.97;100.00
28683;BME280;15862;43.062;25.626;2022-10-15T08:22:10;100609.69;;;12.95;100.00
28683;BME280;15862;43.062;25.626;2022-10-15T08:24:36;100605.16;;;12.86;100.00
28683;BME280;15862;43.062;25.626;2022-10-15T08:27:02;100606.41;;;12.93;100.00
28683;BME280;15862;43.062;25.626;2022-10-15T08:29:27;100606.69;;;13.00;100.00
28683;BME280;15862;43.062;25.626;2022-10-15T08:31:52;100603.66;;;13.06;100.00
28683;BME280;15862;43.062;25.626;2022-10-15T08:34:17;100603.19;;;13.12;100.00
28683;BME280;15862;43.062;25.626;2022-10-15T08:36:43;100613.72;;;13.22;100.00
28683;BME280;15862;43.062;25.626;2022-10-15T08:39:08;100610.06;;;13.24;100.00
28683;BME280;15862;43.062;25.626;2022-10-15T08:41:39;100614.13;;;13.28;100.00
28683;BME280;15862;43.062;25.626;2022-10-15T08:44:05;100612.06;;;13.44;100.00
28683;BME280;15862;43.062;25.626;2022-10-15T08:46:38;100614.38;;;13.81;100.00
28683;BME280;15862;43.062;25.626;2022-10-15T08:49:04;100618.06;;;14.01;100.00
28683;BME280;15862;43.062;25.626;2022-10-15T08:51:41;100614.94;;;14.19;100.00
28683;BME280;15862;43.062;25.626;2022-10-15T08:54:12;100618.22;;;14.21;100.00
28683;BME280;15862;43.062;25.626;2022-10-15T08:56:39;100613.03;;;14.54;100.00
28683;BME280;15862;43.062;25.626;2022-10-15T09:04:35;100621.56;;;15.61;100.00
28683;BME280;15862;43.062;25.626;2022-10-15T09:06:55;100621.19;;;15.86;97.15
28683;BME280;15862;43.062;25.626;2022-10-15T09:14:15;100617.88;;;16.13;90.32
28683;BME280;15862;43.062;25.626;2022-10-15T09:16:44;100617.56;;;16.27;93.41
28683;BME280;15862;43.062;25.626;2022-10-15T09:19:21;100620.44;;;16.54;91.47
28683;BME280;15862;43.062;25.626;2022-10-15T09:21:48;100625.94;;;16.61;88.45
28683;BME280;15862;43.062;25.626;2022-10-15T09:24:19;100624.88;;;16.63;87.15
28683;BME280;15862;43.062;25.626;2022-10-15T09:31:41;100629.78;;;16.57;91.70
28683;BME280;15862;43.062;25.626;2022-10-15T09:34:18;100625.84;;;16.32;90.52
28683;BME280;15862;43.062;25.626;2022-10-15T09:36:49;100628.09;;;16.46;92.32
28683;BME280;15862;43.062;25.626;2022-10-15T09:44:22;100632.59;;;16.83;83.10
28683;BME280;15862;43.062;25.626;2022-10-15T09:46:49;100636.09;;;16.54;80.86
28683;BME280;15862;43.062;25.626;2022-10-15T09:49:15;100625.84;;;16.32;84.40
28683;BME280;15862;43.062;25.626;2022-10-15T09:56:37;100624.00;;;16.23;85.22
28683;BME280;15862;43.062;25.626;2022-10-15T09:59:04;100618.06;;;16.21;86.33
28683;BME280;15862;43.062;25.626;2022-10-15T10:01:31;100612.47;;;16.26;86.88
28683;BME280;15862;43.062;25.626;2022-10-15T10:04:13;100614.78;;;16.19;84.10
28683;BME280;15862;43.062;25.626;2022-10-15T10:06:42;100618.38;;;16.28;85.59
28683;BME280;15862;43.062;25.626;2022-10-15T10:09:11;100613.75;;;16.31;85.80
28683;BME280;15862;43.062;25.626;2022-10-15T10:14:38;100609.13;;;16.44;83.02
28683;BME280;15862;43.062;25.626;2022-10-15T10:17:05;100614.91;;;16.48;83.01
28683;BME280;15862;43.062;25.626;2022-10-15T10:19:31;100610.81;;;16.55;82.91
28683;BME280;15862;43.062;25.626;2022-10-15T10:22:13;100609.50;;;16.70;81.35
28683;BME280;15862;43.062;25.626;2022-10-15T10:24:39;100610.03;;;16.64;82.30
28683;BME280;15862;43.062;25.626;2022-10-15T10:27:11;100612.50;;;16.65;82.21
28683;BME280;15862;43.062;25.626;2022-10-15T10:29:40;100611.47;;;16.96;79.33
28683;BME280;15862;43.062;25.626;2022-10-15T10:32:18;100605.84;;;17.00;79.30
28683;BME280;15862;43.062;25.626;2022-10-15T10:34:44;100602.41;;;17.09;77.97
28683;BME280;15862;43.062;25.626;2022-10-15T10:37:09;100604.09;;;17.39;75.68
28683;BME280;15862;43.062;25.626;2022-10-15T10:39:35;100607.28;;;17.97;73.21
28683;BME280;15862;43.062;25.626;2022-10-15T10:42:04;100603.22;;;18.58;68.16
28683;BME280;15862;43.062;25.626;2022-10-15T10:44:31;100601.09;;;18.88;64.61
28683;BME280;15862;43.062;25.626;2022-10-15T10:49:42;100600.41;;;19.48;62.87
28683;BME280;15862;43.062;25.626;2022-10-15T10:52:17;100599.06;;;20.12;59.19
28683;BME280;15862;43.062;25.626;2022-10-15T10:54:42;100591.97;;;20.38;56.72
28683;BME280;15862;43.062;25.626;2022-10-15T10:57:09;100585.41;;;20.34;57.44
28683;BME280;15862;43.062;25.626;2022-10-15T10:59:36;100587.66;;;20.29;57.00
28683;BME280;15862;43.062;25.626;2022-10-15T11:02:08;100594.81;;;21.01;54.80
28683;BME280;15862;43.062;25.626;2022-10-15T11:04:35;100576.44;;;21.73;52.10
28683;BME280;15862;43.062;25.626;2022-10-15T11:14:41;100567.53;;;22.44;48.66
28683;BME280;15862;43.062;25.626;2022-10-15T11:19:38;100556.00;;;22.75;47.46
28683;BME280;15862;43.062;25.626;2022-10-15T11:29:57;100546.19;;;24.45;43.87
28683;BME280;15862;43.062;25.626;2022-10-15T11:35:00;100528.53;;;28.32;35.54
28683;BME280;15862;43.062;25.626;2022-10-15T11:37:38;100537.06;;;29.46;33.65
28683;BME280;15862;43.062;25.626;2022-10-15T11:40:11;100539.38;;;29.85;33.23
28683;BME280;15862;43.062;25.626;2022-10-15T11:47:35;100529.09;;;27.78;34.96
28683;BME280;15862;43.062;25.626;2022-10-15T11:55:13;100522.50;;;29.48;33.11
28683;BME280;15862;43.062;25.626;2022-10-15T11:57:41;100515.06;;;29.57;32.72
28683;BME280;15862;43.062;25.626;2022-10-15T12:02:36;100509.56;;;29.52;32.72
28683;BME280;15862;43.062;25.626;2022-10-15T12:05:05;100516.38;;;29.48;32.85
28683;BME280;15862;43.062;25.626;2022-10-15T12:12:40;100508.41;;;30.96;30.63
28683;BME280;15862;43.062;25.626;2022-10-15T12:20:37;100502.22;;;31.48;29.83
28683;BME280;15862;43.062;25.626;2022-10-15T12:23:17;100493.72;;;31.16;29.87
28683;BME280;15862;43.062;25.626;2022-10-15T12:25:46;100494.44;;;30.71;30.58
28683;BME280;15862;43.062;25.626;2022-10-15T12:31:00;100491.28;;;30.63;30.57
28683;BME280;15862;43.062;25.626;2022-10-15T12:35:58;100497.25;;;31.28;29.65
28683;BME280;15862;43.062;25.626;2022-10-15T12:38:26;100502.63;;;30.40;31.27
28683;BME280;15862;43.062;25.626;2022-10-15T12:40:55;100497.94;;;30.07;31.32
28683;BME280;15862;43.062;25.626;2022-10-15T12:43:22;100503.75;;;29.61;32.33
28683;BME280;15862;43.062;25.626;2022-10-15T12:45:50;100505.53;;;29.67;32.34
28683;BME280;15862;43.062;25.626;2022-10-15T12:48:17;100496.50;;;29.44;32.41
28683;BME280;15862;43.062;25.626;2022-10-15T12:50:43;100492.66;;;28.91;33.04
28683;BME280;15862;43.062;25.626;2022-10-15T12:56:12;100497.31;;;28.21;33.84
28683;BME280;15862;43.062;25.626;2022-10-15T12:58:45;100493.16;;;27.49;35.59
28683;BME280;15862;43.062;25.626;2022-10-15T13:03:40;100486.19;;;27.68;34.63
28683;BME280;15862;43.062;25.626;2022-10-15T13:08:47;100488.81;;;27.87;34.87
28683;BME280;15862;43.062;25.626;2022-10-15T13:13:48;100487.28;;;24.86;39.28
28683;BME280;15862;43.062;25.626;2022-10-15T13:16:14;100480.31;;;22.61;43.63
28683;BME280;15862;43.062;25.626;2022-10-15T13:18:39;100489.13;;;21.69;46.54
28683;BME280;15862;43.062;25.626;2022-10-15T13:21:05;100490.16;;;21.52;47.64
28683;BME280;15862;43.062;25.626;2022-10-15T13:23:31;100490.34;;;21.27;48.71
28683;BME280;15862;43.062;25.626;2022-10-15T13:26:30;100493.13;;;21.34;49.20
28683;BME280;15862;43.062;25.626;2022-10-15T13:28:51;100489.03;;;21.23;49.90
28683;BME280;15862;43.062;25.626;2022-10-15T13:31:27;100492.19;;;21.11;50.22
28683;BME280;15862;43.062;25.626;2022-10-15T13:33:54;100491.09;;;20.56;52.81
28683;BME280;15862;43.062;25.626;2022-10-15T13:36:25;100495.56;;;20.64;53.05
28683;BME280;15862;43.062;25.626;2022-10-15T13:38:55;100492.59;;;20.67;53.38
28683;BME280;15862;43.062;25.626;2022-10-15T13:41:25;100491.28;;;20.63;53.07
28683;BME280;15862;43.062;25.626;2022-10-15T13:43:52;100495.03;;;20.52;54.09
28683;BME280;15862;43.062;25.626;2022-10-15T13:46:22;100490.91;;;20.50;54.14
28683;BME280;15862;43.062;25.626;2022-10-15T13:48:48;100491.91;;;20.41;54.74
28683;BME280;15862;43.062;25.626;2022-10-15T13:51:13;100493.25;;;20.11;54.73
28683;BME280;15862;43.062;25.626;2022-10-15T13:53:40;100495.13;;;20.19;55.42
28683;BME280;15862;43.062;25.626;2022-10-15T13:58:49;100491.47;;;20.12;54.65
28683;BME280;15862;43.062;25.626;2022-10-15T14:01:18;100486.34;;;19.77;54.27
28683;BME280;15862;43.062;25.626;2022-10-15T14:03:49;100488.69;;;19.80;55.04
28683;BME280;15862;43.062;25.626;2022-10-15T14:06:19;100487.50;;;19.75;55.86
28683;BME280;15862;43.062;25.626;2022-10-15T14:08:45;100497.34;;;19.81;56.79
28683;BME280;15862;43.062;25.626;2022-10-15T14:11:12;100491.31;;;19.55;57.08
28683;BME280;15862;43.062;25.626;2022-10-15T14:13:47;100490.19;;;19.57;57.44
28683;BME280;15862;43.062;25.626;2022-10-15T14:16:29;100485.41;;;19.27;58.76
28683;BME280;15862;43.062;25.626;2022-10-15T14:18:56;100485.66;;;19.17;60.22
28683;BME280;15862;43.062;25.626;2022-10-15T14:21:23;100486.72;;;18.89;62.49
28683;BME280;15862;43.062;25.626;2022-10-15T14:24:00;100484.63;;;18.75;63.42